createdAt,value
2023-02-24T06:02:43.876Z,101215.03
2023-02-24T06:05:25.445Z,101212.22
2023-02-24T06:08:12.843Z,101211.09
2023-02-24T06:10:43.480Z,101199.50
2023-02-24T06:13:19.794Z,101200.72
2023-02-24T06:15:50.679Z,101188.28
2023-02-24T06:18:30.820Z,101196.00
2023-02-24T06:21:03.629Z,101192.31
2023-02-24T06:23:40.826Z,101197.47
2023-02-24T06:26:13.229Z,101192.94
2023-02-24T06:28:49.938Z,101184.66
2023-02-24T06:31:27.853Z,101179.38
2023-02-24T06:34:00.557Z,101180.03
2023-02-24T06:36:36.921Z,101180.59
2023-02-24T06:39:15.883Z,101176.13
2023-02-24T06:41:46.217Z,101167.28
2023-02-24T06:44:22.993Z,101166.34
2023-02-24T06:46:59.863Z,101162.75
2023-02-24T06:49:34.246Z,101155.59
2023-02-24T06:52:11.051Z,101156.22
2023-02-24T06:54:42.099Z,101149.06
2023-02-24T06:57:20.886Z,101142.72
2023-02-24T06:59:58.907Z,101141.59
2023-02-24T07:02:39.620Z,101144.84
2023-02-24T07:05:21.870Z,101151.75
2023-02-24T07:07:52.302Z,101146.28
2023-02-24T07:10:28.854Z,101131.81
2023-02-24T07:12:59.326Z,101128.84
2023-02-24T07:15:38.886Z,101121.38
2023-02-24T07:18:14.877Z,101117.91
2023-02-24T07:20:54.904Z,101119.34
2023-02-24T07:23:24.911Z,101120.09
2023-02-24T07:26:04.890Z,101122.34
2023-02-24T07:28:41.876Z,101119.38
2023-02-24T07:31:15.215Z,101113.78
2023-02-24T07:33:52.879Z,101101.94
2023-02-24T07:36:30.269Z,101097.41
2023-02-24T07:39:09.939Z,101104.81
2023-02-24T07:41:52.909Z,101100.38
2023-02-24T07:44:24.653Z,101095.50
2023-02-24T07:47:01.946Z,101093.63
2023-02-24T07:49:38.935Z,101075.66
2023-02-24T07:52:12.093Z,101075.25
2023-02-24T07:54:49.110Z,101077.47
2023-02-24T07:57:19.425Z,101068.25
2023-02-24T07:59:55.915Z,101072.47
2023-02-24T08:02:33.263Z,101072.25
2023-02-24T08:05:10.021Z,101075.50
2023-02-24T08:07:42.708Z,101075.28
2023-02-24T08:10:30.904Z,101069.88
2023-02-24T08:13:03.309Z,101069.47
2023-02-24T08:15:40.953Z,101072.63
2023-02-24T08:18:12.664Z,101060.97
2023-02-24T08:20:58.964Z,101063.28
2023-02-24T08:23:34.580Z,101062.31
2023-02-24T08:26:19.042Z,101052.06
2023-02-24T08:28:58.031Z,101045.69
2023-02-24T08:31:35.053Z,101048.50
2023-02-24T08:34:05.300Z,101029.78
2023-02-24T08:36:41.972Z,101026.56
2023-02-24T08:39:14.752Z,101024.66
2023-02-24T08:41:57.941Z,101021.53
2023-02-24T08:44:28.550Z,101017.47
2023-02-24T08:47:07.057Z,101012.44
2023-02-24T08:49:39.496Z,101014.34
2023-02-24T08:52:16.042Z,101011.09
2023-02-24T08:54:49.906Z,101017.00
2023-02-24T08:57:27.057Z,101006.47
2023-02-24T09:00:00.396Z,101002.72
2023-02-24T09:02:37.063Z,100996.47
2023-02-24T09:05:14.407Z,100996.13
2023-02-24T09:07:56.990Z,100997.00
2023-02-24T09:10:29.895Z,100990.50
2023-02-24T09:13:08.078Z,100980.63
2023-02-24T09:15:41.714Z,100966.69
2023-02-24T09:18:21.061Z,100981.59
2023-02-24T09:21:16.269Z,100969.47
2023-02-24T09:23:55.118Z,100957.16
2023-02-24T09:26:32.764Z,100951.38
2023-02-24T09:29:29.083Z,100947.88
2023-02-24T09:32:04.742Z,100944.88
2023-02-24T09:34:44.185Z,100940.19
2023-02-24T09:37:31.081Z,100936.81
2023-02-24T09:40:39.570Z,100937.03
2023-02-24T09:43:25.044Z,100938.25
2023-02-24T09:46:21.189Z,100938.34
2023-02-24T09:49:05.380Z,100938.09
2023-02-24T09:51:49.109Z,100925.31
2023-02-24T09:54:31.086Z,100922.09
2023-02-24T09:57:11.201Z,100913.75
2023-02-24T10:00:08.093Z,100918.09
2023-02-24T10:03:00.193Z,100911.09
2023-02-24T10:05:45.066Z,100908.66
2023-02-24T10:08:25.863Z,100899.50
2023-02-24T10:11:14.150Z,100893.09
2023-02-24T10:14:03.457Z,100883.94
2023-02-24T10:17:05.133Z,100891.66
2023-02-24T10:19:36.386Z,100885.13
2023-02-24T10:22:34.106Z,100891.50
2023-02-24T10:25:32.133Z,100897.91
2023-02-24T10:28:16.985Z,100892.13
2023-02-24T10:31:10.487Z,100881.50
2023-02-24T10:33:49.015Z,100883.19
2023-02-24T10:36:37.104Z,100893.53
2023-02-24T10:39:27.137Z,100891.59
2023-02-24T10:42:15.643Z,100885.56
2023-02-24T10:45:02.552Z,100888.47
2023-02-24T10:47:34.277Z,100881.25
2023-02-24T10:50:19.204Z,100868.69
2023-02-24T10:53:11.304Z,100863.00
2023-02-24T10:56:21.446Z,100858.28
2023-02-24T10:59:20.732Z,100863.72
2023-02-24T11:02:13.170Z,100862.34
2023-02-24T11:05:04.698Z,100858.91
2023-02-24T11:07:51.187Z,100851.94
2023-02-24T11:10:32.982Z,100841.25
2023-02-24T11:13:24.212Z,100841.97
2023-02-24T11:16:11.099Z,100839.75
2023-02-24T11:18:49.170Z,100835.72
2023-02-24T11:21:27.180Z,100846.50
2023-02-24T11:24:03.035Z,100836.38
2023-02-24T11:26:46.214Z,100826.75
2023-02-24T11:29:40.176Z,100824.69
2023-02-24T11:32:34.253Z,100809.59
2023-02-24T11:35:22.256Z,100812.69
2023-02-24T11:38:07.703Z,100805.03
2023-02-24T11:40:51.231Z,100803.31
2023-02-24T11:43:27.045Z,100798.19
2023-02-24T11:46:09.223Z,100794.44
2023-02-24T11:48:43.864Z,100782.00
2023-02-24T11:51:27.210Z,100781.31
2023-02-24T11:54:07.238Z,100779.66
2023-02-24T11:56:51.300Z,100789.47
2023-02-24T11:59:39.222Z,100782.19
2023-02-24T12:02:18.318Z,100772.69
2023-02-24T12:05:06.239Z,100777.59
2023-02-24T12:07:47.252Z,100777.34
2023-02-24T12:10:29.212Z,100771.91
2023-02-24T12:13:16.234Z,100766.03
2023-02-24T12:15:51.438Z,100767.66
2023-02-24T12:18:36.227Z,100761.47
2023-02-24T12:21:17.283Z,100763.53
2023-02-24T12:23:51.016Z,100764.66
2023-02-24T12:26:32.306Z,100747.09
2023-02-24T12:29:29.856Z,100741.25
2023-02-24T12:32:20.422Z,100738.72
2023-02-24T12:35:07.062Z,100738.72
2023-02-24T12:38:02.335Z,100727.31
2023-02-24T12:40:45.969Z,100729.19
2023-02-24T12:43:37.240Z,100720.59
2023-02-24T12:46:27.330Z,100717.94
2023-02-24T12:49:32.344Z,100728.13
2023-02-24T12:52:16.992Z,100721.94
2023-02-24T12:55:01.347Z,100719.22
2023-02-24T12:57:42.347Z,100713.97
2023-02-24T13:00:26.371Z,100723.69
2023-02-24T13:03:20.333Z,100715.75
2023-02-24T13:06:03.373Z,100713.78
2023-02-24T13:08:49.063Z,100708.09
2023-02-24T13:11:41.696Z,100706.00
2023-02-24T13:14:31.362Z,100698.75
2023-02-24T13:17:23.316Z,100705.53
2023-02-24T13:20:05.307Z,100698.22
2023-02-24T13:22:42.377Z,100703.16
2023-02-24T13:25:25.362Z,100678.78
2023-02-24T13:28:09.315Z,100676.78
2023-02-24T13:30:43.970Z,100681.22
2023-02-24T13:33:39.338Z,100676.63
2023-02-24T13:36:24.342Z,100675.19
2023-02-24T13:39:13.377Z,100666.81
2023-02-24T13:41:44.456Z,100675.78
2023-02-24T13:44:35.391Z,100681.66
2023-02-24T13:47:41.416Z,100675.19
2023-02-24T13:50:31.421Z,100682.66
2023-02-24T13:53:31.346Z,100683.19
2023-02-24T13:56:20.189Z,100681.09
2023-02-24T13:59:34.438Z,100678.84
